Groton City, New York
Current Conditions -  °F | °C
As of 10:56 AM on Monday 22 Dec 2014 (Local Time) from KITH Reporting Station
Overcast Overcast  
Wind Chill: 25°   Ceiling: 1500
Heat Index: 32°   Visibility: 10mi
Dew Point: 26°   Wind: 8mph
Humidity: 79%   Direction: 180°S
Pressure: 30.25"   Gusts: NA
Location:  42.5874°N, 76.3904°W
Report Text: KITH 221556Z 18007KT 10SM OVC015 00/M03 A3025 RMK AO2 T00001033 SLP258
Loading
Personal Weather Stations






























Interactive Weather Map New forecast layout! Learn more

10-Day Weather Forecast

Advertisements
Track Severe Weather on mobile